createdAt,value
2023-05-10T00:01:00.109Z,13.37
2023-05-10T00:02:00.046Z,13.37
2023-05-10T00:03:00.282Z,13.38
2023-05-10T00:04:00.050Z,13.38
2023-05-10T00:05:00.105Z,13.33
2023-05-10T00:05:59.982Z,13.33
2023-05-10T00:07:00.051Z,13.36
2023-05-10T00:07:59.935Z,13.36
2023-05-10T00:09:00.059Z,13.37
2023-05-10T00:09:59.915Z,13.37
2023-05-10T00:10:59.981Z,13.38
2023-05-10T00:11:59.871Z,13.38
2023-05-10T00:13:00.081Z,13.36
2023-05-10T00:13:59.871Z,13.33
2023-05-10T00:15:00.006Z,13.36
2023-05-10T00:15:59.866Z,13.33
2023-05-10T00:16:59.960Z,13.36
2023-05-10T00:17:59.869Z,13.37
2023-05-10T00:18:59.968Z,13.36
2023-05-10T00:19:59.814Z,13.33
2023-05-10T00:20:59.944Z,13.30
2023-05-10T00:21:59.767Z,13.29
2023-05-10T00:22:59.849Z,13.27
2023-05-10T00:23:59.777Z,13.29
2023-05-10T00:24:59.858Z,13.24
2023-05-10T00:25:59.754Z,13.21
2023-05-10T00:27:00.912Z,13.21
2023-05-10T00:27:59.703Z,13.21
2023-05-10T00:28:59.811Z,13.20
2023-05-10T00:29:59.703Z,13.20
2023-05-10T00:31:00.870Z,13.22
2023-05-10T00:31:59.702Z,13.21
2023-05-10T00:33:00.848Z,13.17
2023-05-10T00:33:59.711Z,13.18
2023-05-10T00:34:59.739Z,13.17
2023-05-10T00:35:59.638Z,13.17
2023-05-10T00:36:59.750Z,13.15
2023-05-10T00:37:59.596Z,13.17
2023-05-10T00:38:59.801Z,13.18
2023-05-10T00:39:59.587Z,13.17
2023-05-10T00:40:59.792Z,13.18
2023-05-10T00:41:59.556Z,13.15
2023-05-10T00:42:59.711Z,13.17
2023-05-10T00:43:59.567Z,13.17
2023-05-10T00:44:59.710Z,13.18
2023-05-10T00:45:59.582Z,13.17
2023-05-10T00:46:59.622Z,13.15
2023-05-10T00:47:59.516Z,13.15
2023-05-10T00:48:59.667Z,13.12
2023-05-10T00:49:59.469Z,13.11
2023-05-10T00:50:59.640Z,13.11
2023-05-10T00:51:59.473Z,13.09
2023-05-10T00:52:59.550Z,13.07
2023-05-10T00:53:59.430Z,13.03
2023-05-10T00:54:59.535Z,12.97
2023-05-10T00:55:59.419Z,12.92
2023-05-10T00:56:59.551Z,12.88
2023-05-10T00:57:59.400Z,12.84
2023-05-10T00:58:59.394Z,12.75
2023-05-10T00:59:59.361Z,12.69
2023-05-10T01:00:59.461Z,12.63
2023-05-10T01:01:59.393Z,12.54
2023-05-10T01:02:59.521Z,12.49
2023-05-10T01:03:59.341Z,12.42
2023-05-10T01:05:00.450Z,12.34
2023-05-10T01:05:59.330Z,12.31
2023-05-10T01:06:59.354Z,12.24
2023-05-10T01:07:59.303Z,12.19
2023-05-10T01:08:59.375Z,12.13
2023-05-10T01:09:59.268Z,12.05
2023-05-10T01:10:59.309Z,12.01
2023-05-10T01:11:59.276Z,11.97
2023-05-10T01:12:59.352Z,11.96
2023-05-10T01:13:59.254Z,11.94
2023-05-10T01:14:59.305Z,11.93
2023-05-10T01:15:59.245Z,11.94
2023-05-10T01:17:00.250Z,11.90
2023-05-10T01:17:59.224Z,11.89
2023-05-10T01:18:59.248Z,11.86
2023-05-10T01:19:59.169Z,11.83
2023-05-10T01:20:59.403Z,11.82
2023-05-10T01:21:59.148Z,11.78
2023-05-10T01:22:59.275Z,11.77
2023-05-10T01:23:59.129Z,11.78
2023-05-10T01:24:59.187Z,11.75
2023-05-10T01:25:59.125Z,11.70
2023-05-10T01:26:59.186Z,11.67
2023-05-10T01:27:59.076Z,11.67
2023-05-10T01:28:59.213Z,11.70
2023-05-10T01:30:14.258Z,11.64
2023-05-10T01:30:59.101Z,11.62
2023-05-10T01:31:59.143Z,11.59
2023-05-10T01:32:59.045Z,11.56
2023-05-10T01:33:59.189Z,11.56
2023-05-10T01:34:58.999Z,11.54
2023-05-10T01:35:59.097Z,11.56
2023-05-10T01:36:58.966Z,11.54
2023-05-10T01:37:59.060Z,11.56
2023-05-10T01:38:58.949Z,11.54
2023-05-10T01:39:59.077Z,11.54
2023-05-10T01:40:58.956Z,11.52
2023-05-10T01:41:59.011Z,11.50
2023-05-10T01:42:58.926Z,11.50
2023-05-10T01:43:59.013Z,11.50
2023-05-10T01:44:58.904Z,11.47
2023-05-10T01:45:59.072Z,11.47
2023-05-10T01:46:59.004Z,11.46
2023-05-10T01:47:58.979Z,11.46
2023-05-10T01:48:58.869Z,11.46
2023-05-10T01:49:58.990Z,11.52
2023-05-10T01:50:58.824Z,11.53
2023-05-10T01:51:58.948Z,11.54
2023-05-10T01:52:58.813Z,11.56
2023-05-10T01:53:58.874Z,11.56
2023-05-10T01:54:58.802Z,11.54
2023-05-10T01:55:58.889Z,11.53
2023-05-10T01:56:58.753Z,11.53
2023-05-10T01:57:58.914Z,11.53
2023-05-10T01:58:58.750Z,11.52
2023-05-10T01:59:58.859Z,11.47
2023-05-10T02:00:58.783Z,11.44
2023-05-10T02:01:58.835Z,11.46
2023-05-10T02:02:58.717Z,11.44
2023-05-10T02:03:59.978Z,11.43
2023-05-10T02:04:58.666Z,11.44
2023-05-10T02:05:58.796Z,11.41
2023-05-10T02:06:58.688Z,11.41
2023-05-10T02:07:58.770Z,11.38
2023-05-10T02:08:58.638Z,11.39
2023-05-10T02:09:58.796Z,11.39
2023-05-10T02:10:58.626Z,11.41
2023-05-10T02:11:58.734Z,11.41
2023-05-10T02:12:58.620Z,11.39
2023-05-10T02:13:58.725Z,11.39
2023-05-10T02:14:58.573Z,11.36
2023-05-10T02:15:58.728Z,11.34
2023-05-10T02:16:58.637Z,11.39
2023-05-10T02:17:58.640Z,11.35
2023-05-10T02:18:58.552Z,11.35
2023-05-10T02:19:58.658Z,11.35
2023-05-10T02:20:58.513Z,11.38
2023-05-10T02:21:58.661Z,11.35
2023-05-10T02:22:58.517Z,11.36
2023-05-10T02:23:58.582Z,11.32
2023-05-10T02:24:58.475Z,11.32
2023-05-10T02:25:58.595Z,11.34
2023-05-10T02:26:58.443Z,11.34
2023-05-10T02:27:58.663Z,11.36
2023-05-10T02:28:58.428Z,11.41
2023-05-10T02:29:58.526Z,11.36
2023-05-10T02:30:58.431Z,11.35
2023-05-10T02:31:58.583Z,11.36
2023-05-10T02:32:58.425Z,11.36
2023-05-10T02:33:58.551Z,11.34
2023-05-10T02:34:58.383Z,11.34
2023-05-10T02:35:58.538Z,11.32
2023-05-10T02:36:58.358Z,11.34
2023-05-10T02:37:58.530Z,11.34
2023-05-10T02:38:58.332Z,11.36
2023-05-10T02:39:58.496Z,11.39
2023-05-10T02:40:58.304Z,11.41
2023-05-10T02:41:58.523Z,11.36
2023-05-10T02:42:58.308Z,11.32
2023-05-10T02:44:00.459Z,11.31
2023-05-10T02:44:58.268Z,11.31
2023-05-10T02:45:59.478Z,11.35
2023-05-10T02:46:58.265Z,11.31
2023-05-10T02:47:58.354Z,11.31
2023-05-10T02:48:58.269Z,11.31
2023-05-10T02:49:58.348Z,11.31
2023-05-10T02:50:58.207Z,11.34
2023-05-10T02:51:59.405Z,11.35
2023-05-10T02:52:58.214Z,11.35
2023-05-10T02:53:59.317Z,11.34
2023-05-10T02:54:58.188Z,11.34
2023-05-10T02:55:58.293Z,11.36
2023-05-10T02:56:58.141Z,11.34
2023-05-10T02:57:58.374Z,11.34
2023-05-10T02:58:58.125Z,11.32
2023-05-10T02:59:58.262Z,11.34
2023-05-10T03:00:58.097Z,11.39
2023-05-10T03:01:58.231Z,11.34
2023-05-10T03:02:58.099Z,11.28
2023-05-10T03:03:58.248Z,11.31
2023-05-10T03:04:58.607Z,11.31
2023-05-10T03:05:58.270Z,11.34
2023-05-10T03:06:58.036Z,11.36
2023-05-10T03:07:58.191Z,11.35
2023-05-10T03:08:58.021Z,11.32
2023-05-10T03:09:58.239Z,11.31
2023-05-10T03:10:58.008Z,11.31
2023-05-10T03:11:58.122Z,11.34
2023-05-10T03:12:58.005Z,11.32
2023-05-10T03:13:58.027Z,11.34
2023-05-10T03:14:57.984Z,11.35
2023-05-10T03:15:58.125Z,11.39
2023-05-10T03:16:57.935Z,11.36
2023-05-10T03:17:58.083Z,11.32
2023-05-10T03:18:57.917Z,11.35
2023-05-10T03:19:58.005Z,11.35
2023-05-10T03:20:57.896Z,11.35
2023-05-10T03:21:57.972Z,11.32
2023-05-10T03:22:57.861Z,11.34
2023-05-10T03:23:58.005Z,11.38
2023-05-10T03:24:57.860Z,11.36
2023-05-10T03:25:57.939Z,11.36
2023-05-10T03:26:57.845Z,11.34
2023-05-10T03:27:57.934Z,11.25
2023-05-10T03:28:57.810Z,11.19
2023-05-10T03:29:57.913Z,11.14
2023-05-10T03:30:57.906Z,11.14
2023-05-10T03:31:57.835Z,11.13
2023-05-10T03:32:57.806Z,11.13
2023-05-10T03:33:57.862Z,11.13
2023-05-10T03:34:57.764Z,11.13
2023-05-10T03:35:58.800Z,11.17
2023-05-10T03:36:57.715Z,11.20
2023-05-10T03:37:57.781Z,11.20
2023-05-10T03:38:57.691Z,11.20
2023-05-10T03:39:57.795Z,11.21
2023-05-10T03:40:57.697Z,11.27
2023-05-10T03:41:57.807Z,11.31
2023-05-10T03:42:57.661Z,11.31
2023-05-10T03:43:57.731Z,11.29
2023-05-10T03:44:57.637Z,11.31
2023-05-10T03:45:57.776Z,11.29
2023-05-10T03:46:57.692Z,11.35
2023-05-10T03:47:57.806Z,11.35
2023-05-10T03:48:57.602Z,11.31
2023-05-10T03:49:57.699Z,11.32
2023-05-10T03:50:57.577Z,11.38
2023-05-10T03:51:57.678Z,11.39
2023-05-10T03:52:57.542Z,11.29
2023-05-10T03:53:57.702Z,11.31
2023-05-10T03:54:57.530Z,11.25
2023-05-10T03:55:57.686Z,11.27
2023-05-10T03:56:57.500Z,11.27
2023-05-10T03:57:57.619Z,11.27
2023-05-10T03:58:57.491Z,11.28
2023-05-10T03:59:57.631Z,11.28
2023-05-10T04:00:57.501Z,11.25
2023-05-10T04:01:57.598Z,11.20
2023-05-10T04:02:57.568Z,11.17
2023-05-10T04:03:57.702Z,11.19
2023-05-10T04:04:57.447Z,11.20
2023-05-10T04:05:57.595Z,11.24
2023-05-10T04:06:57.411Z,11.24
2023-05-10T04:07:57.492Z,11.27
2023-05-10T04:08:57.373Z,11.21
2023-05-10T04:09:57.548Z,11.19
2023-05-10T04:10:57.364Z,11.20
2023-05-10T04:11:57.514Z,11.25
2023-05-10T04:12:57.369Z,11.27
2023-05-10T04:13:57.432Z,11.29
2023-05-10T04:14:57.355Z,11.32
2023-05-10T04:15:59.495Z,11.34
2023-05-10T04:16:57.395Z,11.29
2023-05-10T04:17:59.415Z,11.29
2023-05-10T04:18:57.283Z,11.27
2023-05-10T04:19:58.439Z,11.34
2023-05-10T04:20:57.315Z,11.38
2023-05-10T04:21:57.559Z,11.34
2023-05-10T04:22:57.246Z,11.34
2023-05-10T04:23:57.393Z,11.35
2023-05-10T04:24:57.243Z,11.39
2023-05-10T04:25:57.304Z,11.47
2023-05-10T04:26:57.851Z,11.50
2023-05-10T04:27:57.373Z,11.50
2023-05-10T04:28:57.184Z,11.47
2023-05-10T04:29:57.368Z,11.47
2023-05-10T04:30:57.194Z,11.44
2023-05-10T04:31:57.255Z,11.46
2023-05-10T04:32:57.225Z,11.47
2023-05-10T04:33:57.294Z,11.50
2023-05-10T04:34:57.105Z,11.52
2023-05-10T04:35:57.193Z,11.53
2023-05-10T04:36:57.086Z,11.56
2023-05-10T04:37:57.201Z,11.56
2023-05-10T04:38:57.086Z,11.54
2023-05-10T04:39:57.197Z,11.52
2023-05-10T04:40:57.045Z,11.50
2023-05-10T04:41:57.229Z,11.52
2023-05-10T04:42:57.054Z,11.52
2023-05-10T04:43:57.126Z,11.50
2023-05-10T04:44:57.026Z,11.52
2023-05-10T04:45:57.155Z,11.53
2023-05-10T04:46:56.997Z,11.54
2023-05-10T04:47:57.279Z,11.56
2023-05-10T04:48:56.961Z,11.57
2023-05-10T04:49:57.059Z,11.62
2023-05-10T04:50:56.934Z,11.59
2023-05-10T04:51:57.133Z,11.54
2023-05-10T04:52:56.921Z,11.53
2023-05-10T04:54:06.108Z,11.54
2023-05-10T04:54:56.913Z,11.57
2023-05-10T04:55:57.015Z,11.59
2023-05-10T04:56:56.867Z,11.64
2023-05-10T04:57:57.060Z,11.65
2023-05-10T04:58:56.875Z,11.67
2023-05-10T04:59:57.036Z,11.67
2023-05-10T05:00:56.874Z,11.67
2023-05-10T05:01:57.193Z,11.68
2023-05-10T05:02:56.903Z,11.67
2023-05-10T05:03:58.262Z,11.68
2023-05-10T05:04:56.812Z,11.68
2023-05-10T05:05:57.900Z,11.67
2023-05-10T05:06:56.780Z,11.71
2023-05-10T05:07:56.842Z,11.75
2023-05-10T05:08:56.770Z,11.77
2023-05-10T05:09:56.813Z,11.74
2023-05-10T05:10:56.744Z,11.74
2023-05-10T05:11:56.824Z,11.70
2023-05-10T05:12:56.724Z,11.72
2023-05-10T05:13:57.804Z,11.71
2023-05-10T05:14:56.684Z,11.64
2023-05-10T05:15:56.800Z,11.65
2023-05-10T05:16:56.680Z,11.64
2023-05-10T05:17:56.832Z,11.67
2023-05-10T05:18:56.664Z,11.71
2023-05-10T05:19:56.688Z,11.71
2023-05-10T05:20:56.634Z,11.70
2023-05-10T05:21:56.676Z,11.72
2023-05-10T05:22:56.650Z,11.74
2023-05-10T05:23:56.695Z,11.77
2023-05-10T05:24:56.579Z,11.77
2023-05-10T05:25:56.611Z,11.82
2023-05-10T05:26:56.580Z,11.85
2023-05-10T05:27:56.698Z,11.85
2023-05-10T05:28:56.545Z,11.86
2023-05-10T05:29:56.633Z,11.89
2023-05-10T05:30:56.528Z,11.86
2023-05-10T05:31:56.625Z,11.87
2023-05-10T05:32:56.587Z,11.85
2023-05-10T05:33:56.627Z,11.78
2023-05-10T05:34:56.510Z,11.80
2023-05-10T05:35:56.572Z,11.80
2023-05-10T05:36:56.465Z,11.77
2023-05-10T05:37:56.473Z,11.70
2023-05-10T05:38:56.474Z,11.68
2023-05-10T05:39:56.518Z,11.72
2023-05-10T05:40:56.519Z,11.74
2023-05-10T05:41:56.529Z,11.78
2023-05-10T05:42:56.408Z,11.80
2023-05-10T05:43:56.479Z,11.80
2023-05-10T05:44:56.385Z,11.86
2023-05-10T05:45:58.639Z,11.89
2023-05-10T05:46:56.356Z,11.89
2023-05-10T05:48:17.452Z,11.94
2023-05-10T05:48:56.366Z,11.97
2023-05-10T05:49:56.370Z,11.99
2023-05-10T05:50:56.308Z,11.97
2023-05-10T05:51:56.392Z,11.94
2023-05-10T05:52:56.312Z,11.90
2023-05-10T05:53:57.369Z,11.87
2023-05-10T05:54:56.282Z,11.89
2023-05-10T05:55:56.332Z,11.90
2023-05-10T05:56:56.315Z,11.94
2023-05-10T05:57:56.343Z,11.93
2023-05-10T05:58:56.304Z,11.89
2023-05-10T05:59:56.338Z,11.93
2023-05-10T06:00:56.228Z,11.90
2023-05-10T06:01:56.263Z,11.90
2023-05-10T06:02:56.287Z,11.87
2023-05-10T06:03:56.379Z,11.90
2023-05-10T06:04:56.179Z,11.96
2023-05-10T06:05:56.252Z,11.96
2023-05-10T06:06:56.165Z,11.99
2023-05-10T06:07:56.151Z,12.04
2023-05-10T06:08:56.301Z,12.04
2023-05-10T06:09:56.172Z,12.04
2023-05-10T06:10:56.142Z,12.05
2023-05-10T06:11:56.184Z,12.06
2023-05-10T06:12:56.092Z,12.06
2023-05-10T06:13:56.132Z,12.05
2023-05-10T06:14:56.065Z,12.02
2023-05-10T06:15:56.107Z,11.97
2023-05-10T06:16:56.116Z,11.86
2023-05-10T06:17:56.155Z,11.80
2023-05-10T06:18:56.022Z,11.80
2023-05-10T06:19:56.072Z,11.83
2023-05-10T06:20:56.012Z,11.82
2023-05-10T06:21:56.045Z,11.82
2023-05-10T06:22:55.982Z,11.85
2023-05-10T06:23:56.169Z,11.89
2023-05-10T06:24:55.969Z,11.93
2023-05-10T06:25:56.024Z,11.97
2023-05-10T06:26:55.951Z,11.99
2023-05-10T06:27:55.990Z,12.01
2023-05-10T06:28:55.926Z,12.05
2023-05-10T06:30:02.095Z,12.09
2023-05-10T06:30:55.904Z,12.11
2023-05-10T06:31:56.051Z,12.06
2023-05-10T06:32:55.935Z,12.06
2023-05-10T06:33:56.849Z,12.01
2023-05-10T06:34:55.860Z,12.04
2023-05-10T06:35:55.974Z,12.04
2023-05-10T06:36:55.875Z,12.05
2023-05-10T06:37:55.861Z,12.08
2023-05-10T06:38:55.838Z,12.12
2023-05-10T06:39:55.862Z,12.12
2023-05-10T06:40:55.838Z,12.15
2023-05-10T06:41:55.878Z,12.15
2023-05-10T06:42:55.767Z,12.15
2023-05-10T06:43:55.773Z,12.13
2023-05-10T06:44:55.757Z,12.19
2023-05-10T06:45:55.879Z,12.21
2023-05-10T06:46:55.730Z,12.26
2023-05-10T06:47:55.846Z,12.26
2023-05-10T06:48:55.716Z,12.30
2023-05-10T06:49:55.821Z,12.29
2023-05-10T06:50:55.720Z,12.27
2023-05-10T06:51:55.725Z,12.30
2023-05-10T06:52:55.674Z,12.33
2023-05-10T06:53:55.746Z,12.38
2023-05-10T06:54:55.653Z,12.42
2023-05-10T06:55:55.693Z,12.46
2023-05-10T06:56:55.623Z,12.48
2023-05-10T06:57:55.660Z,12.49
2023-05-10T06:58:55.613Z,12.56
2023-05-10T06:59:55.681Z,12.54
2023-05-10T07:00:55.609Z,12.56
2023-05-10T07:01:55.662Z,12.56
2023-05-10T07:02:55.603Z,12.57
2023-05-10T07:03:55.604Z,12.60
2023-05-10T07:04:55.655Z,12.60
2023-05-10T07:05:55.623Z,12.59
2023-05-10T07:06:55.559Z,12.52
2023-05-10T07:07:55.633Z,12.52
2023-05-10T07:08:55.495Z,12.52
2023-05-10T07:09:55.537Z,12.52
2023-05-10T07:10:55.484Z,12.48
2023-05-10T07:11:55.545Z,12.48
2023-05-10T07:12:55.542Z,12.51
2023-05-10T07:13:55.566Z,12.49
2023-05-10T07:14:55.453Z,12.45
2023-05-10T07:15:55.527Z,12.44
2023-05-10T07:16:55.480Z,12.44
2023-05-10T07:17:55.635Z,12.45
2023-05-10T07:18:55.407Z,12.44
2023-05-10T07:19:55.541Z,12.45
2023-05-10T07:20:55.426Z,12.42
2023-05-10T07:21:55.433Z,12.39
2023-05-10T07:22:55.353Z,12.37
2023-05-10T07:23:55.462Z,12.34
2023-05-10T07:24:55.334Z,12.38
2023-05-10T07:25:55.445Z,12.38
2023-05-10T07:26:55.313Z,12.37
2023-05-10T07:27:55.348Z,12.34
2023-05-10T07:28:55.320Z,12.38
2023-05-10T07:29:55.361Z,12.39
2023-05-10T07:30:55.291Z,12.44
2023-05-10T07:31:57.942Z,12.46
2023-05-10T07:32:55.265Z,12.46
2023-05-10T07:33:55.324Z,12.48
2023-05-10T07:34:55.253Z,12.49
2023-05-10T07:35:55.302Z,12.52
2023-05-10T07:36:55.200Z,12.51
2023-05-10T07:37:55.310Z,12.56
2023-05-10T07:38:55.194Z,12.59
2023-05-10T07:39:55.283Z,12.60
2023-05-10T07:40:55.167Z,12.60
2023-05-10T07:41:55.249Z,12.59
2023-05-10T07:42:55.151Z,12.59
2023-05-10T07:43:55.248Z,12.60
2023-05-10T07:44:55.172Z,12.59
2023-05-10T07:45:56.383Z,12.60
2023-05-10T07:46:55.099Z,12.63
2023-05-10T07:47:55.203Z,12.66
2023-05-10T07:48:55.079Z,12.69
2023-05-10T07:49:55.116Z,12.70
2023-05-10T07:50:55.063Z,12.71
2023-05-10T07:51:55.100Z,12.77
2023-05-10T07:52:55.030Z,12.77
2023-05-10T07:53:55.111Z,12.77
2023-05-10T07:54:55.029Z,12.78
2023-05-10T07:55:55.120Z,12.79
2023-05-10T07:56:54.996Z,12.79
2023-05-10T07:57:55.035Z,12.81
2023-05-10T07:58:54.977Z,12.81
2023-05-10T07:59:55.089Z,12.78
2023-05-10T08:00:54.957Z,12.77
2023-05-10T08:01:55.094Z,12.79
2023-05-10T08:02:55.044Z,12.82
2023-05-10T08:03:55.040Z,12.82
2023-05-10T08:04:54.946Z,12.78
2023-05-10T08:05:54.968Z,12.77
2023-05-10T08:06:54.890Z,12.74
2023-05-10T08:07:55.017Z,12.71
2023-05-10T08:08:54.870Z,12.77
2023-05-10T08:09:54.947Z,12.78
2023-05-10T08:10:54.834Z,12.71
2023-05-10T08:11:54.961Z,12.71
2023-05-10T08:12:54.817Z,12.70
2023-05-10T08:13:54.923Z,12.70
2023-05-10T08:14:54.805Z,12.74
2023-05-10T08:15:54.869Z,12.74
2023-05-10T08:16:54.798Z,12.74
2023-05-10T08:17:54.869Z,12.77
2023-05-10T08:18:54.814Z,12.81
2023-05-10T08:19:54.859Z,12.85
2023-05-10T08:20:54.737Z,12.89
2023-05-10T08:21:54.813Z,12.93
2023-05-10T08:22:54.715Z,12.93
2023-05-10T08:23:54.782Z,12.96
2023-05-10T08:24:54.698Z,12.96
2023-05-10T08:25:54.800Z,12.96
2023-05-10T08:26:54.693Z,12.93
2023-05-10T08:27:54.718Z,12.89
2023-05-10T08:28:54.659Z,12.88
2023-05-10T08:29:54.721Z,12.88
2023-05-10T08:30:54.661Z,12.92
2023-05-10T08:31:54.671Z,13.00
2023-05-10T08:32:54.632Z,13.00
2023-05-10T08:33:54.642Z,12.97
2023-05-10T08:34:54.579Z,13.02
2023-05-10T08:35:54.675Z,13.03
2023-05-10T08:36:54.585Z,13.00
2023-05-10T08:37:54.669Z,13.03
2023-05-10T08:38:54.576Z,13.06
2023-05-10T08:39:54.584Z,13.07
2023-05-10T08:40:54.557Z,13.12
2023-05-10T08:41:54.636Z,13.12
2023-05-10T08:42:54.503Z,13.09
2023-05-10T08:43:54.612Z,13.00
2023-05-10T08:44:54.478Z,13.04
2023-05-10T08:45:54.594Z,13.09
2023-05-10T08:46:54.622Z,13.15
2023-05-10T08:47:54.559Z,13.17
2023-05-10T08:48:54.484Z,13.21
2023-05-10T08:49:54.557Z,13.27
2023-05-10T08:50:54.434Z,13.30
2023-05-10T08:51:54.509Z,13.37
2023-05-10T08:52:54.407Z,13.41
2023-05-10T08:53:54.480Z,13.47
2023-05-10T08:54:54.389Z,13.46
2023-05-10T08:55:54.482Z,13.47
2023-05-10T08:56:54.359Z,13.49
2023-05-10T08:57:54.423Z,13.47
2023-05-10T08:58:54.330Z,13.51
2023-05-10T08:59:54.410Z,13.52
2023-05-10T09:00:54.415Z,13.52
2023-05-10T09:01:54.422Z,13.52
2023-05-10T09:02:54.337Z,13.55
2023-05-10T09:03:54.361Z,13.56
2023-05-10T09:04:54.402Z,13.59
2023-05-10T09:05:54.352Z,13.59
2023-05-10T09:06:54.266Z,13.54
2023-05-10T09:07:54.304Z,13.51
2023-05-10T09:08:54.243Z,13.55
2023-05-10T09:09:54.276Z,13.58
2023-05-10T09:10:54.222Z,13.63
2023-05-10T09:11:54.297Z,13.63
2023-05-10T09:12:54.235Z,13.69
2023-05-10T09:13:54.290Z,13.74
2023-05-10T09:14:54.164Z,13.74
2023-05-10T09:15:54.209Z,13.74
2023-05-10T09:16:54.206Z,13.71
2023-05-10T09:17:54.246Z,13.70
2023-05-10T09:18:54.161Z,13.71
2023-05-10T09:19:54.221Z,13.73
2023-05-10T09:20:54.105Z,13.71
2023-05-10T09:21:54.140Z,13.73
2023-05-10T09:22:54.113Z,13.71
2023-05-10T09:23:54.150Z,13.74
2023-05-10T09:24:54.066Z,13.76
2023-05-10T09:25:54.162Z,13.76
2023-05-10T09:26:54.055Z,13.71
2023-05-10T09:27:54.069Z,13.70
2023-05-10T09:28:54.058Z,13.73
2023-05-10T09:29:54.206Z,13.69
2023-05-10T09:30:54.028Z,13.71
2023-05-10T09:31:54.102Z,13.77
2023-05-10T09:32:53.992Z,13.84
2023-05-10T09:33:54.069Z,13.91
2023-05-10T09:34:53.981Z,14.01
2023-05-10T09:35:54.022Z,14.09
2023-05-10T09:36:53.946Z,14.13
2023-05-10T09:37:54.067Z,14.14
2023-05-10T09:38:53.935Z,14.17
2023-05-10T09:39:53.988Z,14.29
2023-05-10T09:40:53.890Z,14.39
2023-05-10T09:41:53.961Z,14.44
2023-05-10T09:42:53.883Z,14.44
2023-05-10T09:43:53.964Z,14.39
2023-05-10T09:44:53.854Z,14.34
2023-05-10T09:45:53.943Z,14.25
2023-05-10T09:46:53.845Z,14.17
2023-05-10T09:47:53.954Z,14.12
2023-05-10T09:48:53.808Z,14.04
2023-05-10T09:49:53.956Z,13.96
2023-05-10T09:50:53.796Z,13.87
2023-05-10T09:51:53.873Z,13.77
2023-05-10T09:52:53.820Z,13.71
2023-05-10T09:53:53.834Z,13.67
2023-05-10T09:54:53.745Z,13.58
2023-05-10T09:55:53.846Z,13.55
2023-05-10T09:56:53.746Z,13.52
2023-05-10T09:57:53.763Z,13.54
2023-05-10T09:58:53.699Z,13.56
2023-05-10T09:59:53.762Z,13.56
2023-05-10T10:00:53.699Z,13.52
2023-05-10T10:01:53.877Z,13.49
2023-05-10T10:02:53.716Z,13.41
2023-05-10T10:03:53.700Z,13.38
2023-05-10T10:04:53.678Z,13.30
2023-05-10T10:05:53.711Z,13.29
2023-05-10T10:06:53.611Z,13.25
2023-05-10T10:07:53.662Z,13.22
2023-05-10T10:08:55.616Z,13.20
2023-05-10T10:09:53.622Z,13.21
2023-05-10T10:10:56.181Z,13.20
2023-05-10T10:11:53.652Z,13.20
2023-05-10T10:12:53.559Z,13.18
2023-05-10T10:13:53.598Z,13.20
2023-05-10T10:14:53.547Z,13.20
2023-05-10T10:15:53.611Z,13.18
2023-05-10T10:17:06.727Z,13.17
2023-05-10T10:17:53.629Z,13.12
2023-05-10T10:18:53.687Z,13.11
2023-05-10T10:19:53.496Z,13.03
2023-05-10T10:20:53.491Z,12.93
2023-05-10T10:21:53.464Z,12.82
2023-05-10T10:22:53.507Z,12.77
2023-05-10T10:23:53.480Z,12.70
2023-05-10T10:24:53.578Z,12.67
2023-05-10T10:25:53.429Z,12.66
2023-05-10T10:26:53.432Z,12.66
2023-05-10T10:27:53.442Z,12.69
2023-05-10T10:28:53.460Z,12.70
2023-05-10T10:29:53.411Z,12.67
2023-05-10T10:30:53.457Z,12.66
2023-05-10T10:31:53.502Z,12.66
2023-05-10T10:32:53.414Z,12.63
2023-05-10T10:33:53.349Z,12.64
2023-05-10T10:34:53.385Z,12.64
2023-05-10T10:35:53.324Z,12.64
2023-05-10T10:36:53.406Z,12.64
2023-05-10T10:37:53.332Z,12.67
2023-05-10T10:38:53.316Z,12.69
2023-05-10T10:39:53.273Z,12.69
2023-05-10T10:40:53.312Z,12.67
2023-05-10T10:41:53.252Z,12.69
2023-05-10T10:42:53.406Z,12.70
2023-05-10T10:43:53.225Z,12.70
2023-05-10T10:44:53.237Z,12.70
2023-05-10T10:45:53.215Z,12.71
2023-05-10T10:46:53.269Z,12.77
2023-05-10T10:47:53.202Z,12.82
2023-05-10T10:48:53.283Z,12.85
2023-05-10T10:49:53.166Z,12.88
2023-05-10T10:50:53.156Z,12.89
2023-05-10T10:51:53.192Z,12.96
2023-05-10T10:52:53.323Z,13.00
2023-05-10T10:53:53.133Z,13.04
2023-05-10T10:54:53.270Z,13.09
2023-05-10T10:55:53.129Z,13.09
2023-05-10T10:56:53.089Z,13.14
2023-05-10T10:57:53.110Z,13.17
2023-05-10T10:58:53.168Z,13.18
2023-05-10T10:59:53.060Z,13.21
2023-05-10T11:00:53.241Z,13.24
2023-05-10T11:01:53.078Z,13.29
2023-05-10T11:02:53.113Z,13.32
2023-05-10T11:03:53.045Z,13.36
2023-05-10T11:04:53.118Z,13.41
2023-05-10T11:05:53.031Z,13.46
2023-05-10T11:06:53.170Z,13.55
2023-05-10T11:07:52.981Z,13.62
2023-05-10T11:08:53.055Z,13.73
2023-05-10T11:09:52.950Z,13.80
2023-05-10T11:10:55.127Z,13.88
2023-05-10T11:11:52.947Z,13.94
2023-05-10T11:12:53.076Z,14.02
2023-05-10T11:13:52.894Z,14.07
2023-05-10T11:14:52.980Z,14.09
2023-05-10T11:15:52.881Z,14.12
2023-05-10T11:16:55.034Z,14.10
2023-05-10T11:17:52.955Z,14.13
2023-05-10T11:18:53.999Z,14.14
2023-05-10T11:19:52.843Z,14.16
2023-05-10T11:20:52.928Z,14.16
2023-05-10T11:21:52.830Z,14.17
2023-05-10T11:22:52.945Z,14.19
2023-05-10T11:23:52.859Z,14.19
2023-05-10T11:24:52.954Z,14.24
2023-05-10T11:25:52.793Z,14.29
2023-05-10T11:26:52.802Z,14.34
2023-05-10T11:27:52.868Z,14.39
2023-05-10T11:28:52.758Z,14.43
2023-05-10T11:29:52.767Z,14.46
2023-05-10T11:30:52.775Z,14.46
2023-05-10T11:31:52.711Z,14.46
2023-05-10T11:32:52.844Z,14.42
2023-05-10T11:33:52.700Z,14.43
2023-05-10T11:34:52.747Z,14.42
2023-05-10T11:35:52.702Z,14.43
2023-05-10T11:36:52.880Z,14.43
2023-05-10T11:37:52.650Z,14.46
2023-05-10T11:38:52.739Z,14.46
2023-05-10T11:39:52.630Z,14.39
2023-05-10T11:40:52.773Z,14.31
2023-05-10T11:41:52.636Z,14.19
2023-05-10T11:42:52.700Z,14.07
2023-05-10T11:43:52.596Z,13.87
2023-05-10T11:44:52.609Z,13.61
2023-05-10T11:45:52.610Z,13.36
2023-05-10T11:46:52.684Z,13.21
2023-05-10T11:47:52.635Z,13.04
2023-05-10T11:48:52.647Z,12.93
2023-05-10T11:49:52.534Z,12.85
2023-05-10T11:50:52.547Z,12.79
2023-05-10T11:51:52.677Z,12.74
2023-05-10T11:52:52.616Z,12.70
2023-05-10T11:53:52.496Z,12.69
2023-05-10T11:54:52.568Z,12.69
2023-05-10T11:55:52.470Z,12.74
2023-05-10T11:57:04.873Z,12.77
2023-05-10T11:57:52.444Z,12.84
2023-05-10T11:58:52.683Z,12.88
2023-05-10T11:59:52.558Z,12.88
2023-05-10T12:00:53.420Z,12.89
2023-05-10T12:01:52.423Z,12.96
2023-05-10T12:02:52.678Z,13.02
2023-05-10T12:03:52.605Z,13.06
2023-05-10T12:04:52.547Z,13.04
2023-05-10T12:05:52.356Z,13.03
2023-05-10T12:06:52.578Z,13.06
2023-05-10T12:07:52.362Z,13.09
2023-05-10T12:08:52.526Z,13.12
2023-05-10T12:09:52.394Z,13.17
2023-05-10T12:10:52.484Z,13.17
2023-05-10T12:11:52.336Z,13.18
2023-05-10T12:12:52.384Z,13.20
2023-05-10T12:13:52.747Z,13.22
2023-05-10T12:14:52.301Z,13.24
2023-05-10T12:15:52.269Z,13.22
2023-05-10T12:16:52.515Z,13.22
2023-05-10T12:17:52.272Z,13.24
2023-05-10T12:18:52.438Z,13.22
2023-05-10T12:19:52.268Z,13.25
2023-05-10T12:20:52.260Z,13.25
2023-05-10T12:21:52.210Z,13.27
2023-05-10T12:22:54.348Z,13.30
2023-05-10T12:23:52.173Z,13.36
2023-05-10T12:24:52.380Z,13.40
2023-05-10T12:25:52.183Z,13.43
2023-05-10T12:26:52.178Z,13.46
2023-05-10T12:27:52.133Z,13.47
2023-05-10T12:28:52.199Z,13.47
2023-05-10T12:29:52.253Z,13.41
2023-05-10T12:30:52.266Z,13.43
2023-05-10T12:31:52.148Z,13.43
2023-05-10T12:32:52.442Z,13.37
2023-05-10T12:33:52.083Z,13.29
2023-05-10T12:34:52.204Z,13.29
2023-05-10T12:35:52.089Z,13.32
2023-05-10T12:36:52.254Z,13.29
2023-05-10T12:37:52.013Z,13.32
2023-05-10T12:38:52.275Z,13.33
2023-05-10T12:39:52.196Z,13.33
2023-05-10T12:40:52.296Z,13.33
2023-05-10T13:40:37.249Z,13.67
2023-05-10T13:41:36.783Z,13.69
2023-05-10T13:42:36.888Z,13.69
2023-05-10T13:43:36.870Z,13.69
2023-05-10T13:44:36.930Z,13.70
2023-05-10T13:45:36.734Z,13.69
2023-05-10T13:46:36.996Z,13.69
2023-05-10T13:47:36.770Z,13.67
2023-05-10T13:48:38.704Z,13.67
2023-05-10T13:49:36.705Z,13.69
2023-05-10T13:50:36.825Z,13.73
2023-05-10T13:51:36.690Z,13.76